Terminal Aerodrome Forecast
Issued by NWS Indianapolis, IN

Home | Current Version | Previous Version | Text Only | Print | Product List | Glossary On
Versions: 1 2 3 4 5 6 7 8 9 10 11 12 13 14 15 16 17 18 19 20 21 22 23 24 25 26 27 28
000
FTUS43 KIND 230833 AAA
TAFIND
TAF AMD
KIND 230833Z 2309/2412 21006KT P6SM SCT150
     FM231300 22006KT P6SM BKN015
     FM232000 20006KT P6SM BKN035
     FM232300 16005KT P6SM BKN030
     FM240100 15006KT P6SM VCSH BKN020
     FM240300 15008KT P6SM OVC015
     FM240800 18012KT P6SM BKN035
     FM241100 18011KT P6SM BKN030=

USA.gov is the U.S. government's official web portal to all federal, state and local government web resources and services.